createdAt,value
2017-07-22T00:00:18.928Z,8.37
2017-07-22T00:02:47.190Z,8.27
2017-07-22T00:05:14.709Z,6.40
2017-07-22T00:07:42.184Z,8.50
2017-07-22T00:10:09.676Z,8.73
2017-07-22T00:12:37.922Z,6.37
2017-07-22T00:15:05.420Z,6.33
2017-07-22T00:17:33.656Z,6.80
2017-07-22T00:20:01.159Z,5.63
2017-07-22T00:22:29.429Z,6.93
2017-07-22T00:24:57.676Z,5.67
2017-07-22T00:27:25.176Z,5.27
2017-07-22T00:29:52.663Z,6.40
2017-07-22T00:32:20.134Z,7.27
2017-07-22T00:34:47.621Z,5.80
2017-07-22T00:37:15.097Z,7.03
2017-07-22T00:39:43.359Z,6.87
2017-07-22T00:42:10.827Z,9.60
2017-07-22T00:44:39.077Z,6.30
2017-07-22T00:47:06.553Z,6.73
2017-07-22T00:49:34.036Z,5.87
2017-07-22T00:52:01.516Z,6.40
2017-07-22T00:54:28.988Z,4.67
2017-07-22T00:56:56.496Z,5.53
2017-07-22T00:59:24.732Z,6.53
2017-07-22T01:01:52.226Z,6.17
2017-07-22T01:04:20.468Z,6.97
2017-07-22T01:06:47.968Z,7.43
2017-07-22T01:09:16.219Z,6.47
2017-07-22T01:11:43.696Z,5.57
2017-07-22T01:14:11.968Z,5.87
2017-07-22T01:16:39.444Z,5.87
2017-07-22T01:19:07.696Z,7.97
2017-07-22T01:21:35.185Z,12.53
2017-07-22T01:24:02.682Z,7.33
2017-07-22T01:26:30.164Z,7.63
2017-07-22T01:28:57.636Z,6.80
2017-07-22T01:31:25.893Z,5.70
2017-07-22T01:33:53.360Z,5.17
2017-07-22T01:36:20.862Z,5.00
2017-07-22T01:38:48.337Z,6.13
2017-07-22T01:41:15.812Z,5.30
2017-07-22T01:43:43.315Z,5.23
2017-07-22T01:46:11.563Z,6.27
2017-07-22T01:48:39.061Z,5.87
2017-07-22T01:51:06.531Z,7.53
2017-07-22T01:53:34.020Z,6.57
2017-07-22T01:56:01.488Z,7.37
2017-07-22T01:58:28.987Z,7.53
2017-07-22T02:00:56.457Z,7.20
2017-07-22T02:03:23.936Z,11.30
2017-07-22T02:05:51.427Z,9.43
2017-07-22T02:08:18.893Z,9.10
2017-07-22T02:10:46.388Z,12.90
2017-07-22T02:13:13.869Z,11.57
2017-07-22T02:15:41.362Z,9.67
2017-07-22T02:18:08.840Z,12.33
2017-07-22T02:20:37.097Z,12.53
2017-07-22T02:23:04.572Z,12.10
2017-07-22T02:25:32.833Z,13.40
2017-07-22T02:28:00.313Z,12.70
2017-07-22T02:30:29.506Z,18.20
2017-07-22T02:32:57.781Z,14.57
2017-07-22T02:35:26.025Z,18.60
2017-07-22T02:37:53.518Z,15.10
2017-07-22T02:40:21.773Z,12.97
2017-07-22T02:42:49.272Z,13.20
2017-07-22T02:45:16.749Z,13.73
2017-07-22T02:47:44.244Z,12.00
2017-07-22T02:50:11.725Z,18.83
2017-07-22T02:52:39.996Z,13.47
2017-07-22T02:55:08.256Z,14.00
2017-07-22T02:57:35.748Z,12.83
2017-07-22T03:00:03.240Z,13.60
2017-07-22T03:02:30.724Z,15.07
2017-07-22T03:04:58.239Z,17.50
2017-07-22T03:07:25.714Z,19.10
2017-07-22T03:09:53.215Z,16.30
2017-07-22T03:12:20.712Z,15.50
2017-07-22T03:14:48.288Z,13.20
2017-07-22T03:17:15.789Z,14.90
2017-07-22T03:19:43.273Z,13.30
2017-07-22T03:22:10.780Z,16.20
2017-07-22T03:24:38.279Z,11.50
2017-07-22T03:27:06.520Z,12.60
2017-07-22T03:29:33.989Z,19.60
2017-07-22T03:32:01.487Z,10.73
2017-07-22T03:34:28.976Z,14.40
2017-07-22T03:36:56.452Z,12.23
2017-07-22T03:39:23.953Z,17.30
2017-07-22T03:41:52.199Z,13.23
2017-07-22T03:44:19.700Z,13.73
2017-07-22T03:46:47.175Z,16.30
2017-07-22T03:49:14.672Z,11.70
2017-07-22T03:51:42.145Z,12.83
2017-07-22T03:54:09.639Z,13.27
2017-07-22T03:56:37.124Z,14.30
2017-07-22T03:59:04.612Z,14.90
2017-07-22T04:01:32.100Z,12.63
2017-07-22T04:03:59.573Z,12.43
2017-07-22T04:06:27.077Z,11.20
2017-07-22T04:08:54.554Z,9.60
2017-07-22T04:11:22.045Z,12.60
2017-07-22T04:13:49.532Z,10.27
2017-07-22T04:16:17.013Z,14.43
2017-07-22T04:18:44.506Z,8.90
2017-07-22T04:21:11.976Z,9.97
2017-07-22T04:23:39.476Z,9.17
2017-07-22T04:26:06.949Z,11.97
2017-07-22T04:28:34.440Z,10.00
2017-07-22T04:31:02.680Z,11.23
2017-07-22T04:33:30.177Z,12.17
2017-07-22T04:35:57.664Z,9.57
2017-07-22T04:38:25.156Z,13.50
2017-07-22T04:40:53.443Z,13.43
2017-07-22T04:43:20.912Z,14.33
2017-07-22T04:45:49.152Z,10.60
2017-07-22T04:48:16.639Z,9.10
2017-07-22T04:50:44.880Z,9.13
2017-07-22T04:53:12.373Z,11.23
2017-07-22T04:55:39.840Z,12.27
2017-07-22T04:58:08.101Z,9.23
2017-07-22T05:00:35.575Z,9.50
2017-07-22T05:03:03.824Z,9.80
2017-07-22T05:05:31.304Z,10.73
2017-07-22T05:07:59.549Z,9.30
2017-07-22T05:10:27.028Z,9.40
2017-07-22T05:12:54.504Z,9.80
2017-07-22T05:15:22.759Z,7.67
2017-07-22T05:17:50.289Z,8.47
2017-07-22T05:20:17.792Z,9.13
2017-07-22T05:22:46.027Z,7.03
2017-07-22T05:25:13.497Z,12.80
2017-07-22T05:27:40.993Z,9.83
2017-07-22T05:30:09.248Z,8.77
2017-07-22T05:32:36.720Z,12.20
2017-07-22T05:35:04.967Z,6.63
2017-07-22T05:37:32.452Z,7.17
2017-07-22T05:40:00.693Z,6.00
2017-07-22T05:42:28.374Z,7.17
2017-07-22T05:44:55.852Z,6.90
2017-07-22T05:47:24.090Z,7.30
2017-07-22T05:49:51.580Z,6.57
2017-07-22T05:52:19.836Z,8.03
2017-07-22T05:54:47.312Z,13.17
2017-07-22T05:57:15.576Z,11.67
2017-07-22T05:59:43.340Z,7.27
2017-07-22T06:02:10.944Z,7.53
2017-07-22T06:04:38.408Z,6.27
2017-07-22T06:07:05.914Z,7.00
2017-07-22T06:09:33.443Z,8.57
2017-07-22T06:12:00.913Z,5.50
2017-07-22T06:14:28.412Z,7.90
2017-07-22T06:16:56.659Z,6.83
2017-07-22T06:19:24.152Z,7.60
2017-07-22T06:21:52.396Z,7.07
2017-07-22T06:24:19.894Z,8.80
2017-07-22T06:26:47.380Z,7.60
2017-07-22T06:29:14.884Z,5.97
2017-07-22T06:31:42.384Z,6.97
2017-07-22T06:34:09.857Z,4.83
2017-07-22T06:36:37.327Z,6.20
2017-07-22T06:39:04.828Z,6.80
2017-07-22T06:41:33.072Z,7.70
2017-07-22T06:44:00.555Z,6.50
2017-07-22T06:46:28.800Z,4.87
2017-07-22T06:48:56.284Z,4.37
2017-07-22T06:51:23.780Z,5.97
2017-07-22T06:53:51.259Z,4.10
2017-07-22T06:56:18.753Z,10.30
2017-07-22T06:58:46.238Z,2.97
2017-07-22T07:01:14.492Z,3.53
2017-07-22T07:03:41.961Z,4.33
2017-07-22T07:06:10.224Z,3.50
2017-07-22T07:08:37.721Z,3.20
2017-07-22T07:11:05.195Z,4.87
2017-07-22T07:13:32.660Z,4.40
2017-07-22T07:16:00.156Z,3.07
2017-07-22T07:18:28.408Z,3.83
2017-07-22T07:20:55.884Z,4.60
2017-07-22T07:23:23.349Z,5.80
2017-07-22T07:25:50.888Z,3.20
2017-07-22T07:28:18.364Z,10.10
2017-07-22T07:30:45.841Z,3.20
2017-07-22T07:33:14.117Z,3.33
2017-07-22T07:35:42.357Z,4.40
2017-07-22T07:38:09.825Z,3.13
2017-07-22T07:40:37.312Z,3.67
2017-07-22T07:43:05.554Z,2.47
2017-07-22T07:45:33.021Z,5.10
2017-07-22T07:48:00.541Z,3.50
2017-07-22T07:50:28.100Z,3.50
2017-07-22T07:52:55.588Z,3.20
2017-07-22T07:55:23.060Z,2.83
2017-07-22T07:57:50.552Z,6.27
2017-07-22T08:00:18.021Z,2.93
2017-07-22T08:02:45.593Z,2.47
2017-07-22T08:05:13.083Z,2.47
2017-07-22T08:07:40.610Z,3.37
2017-07-22T08:10:08.084Z,2.10
2017-07-22T08:12:35.627Z,2.80
2017-07-22T08:15:03.111Z,2.70
2017-07-22T08:17:30.645Z,2.30
2017-07-22T08:19:58.123Z,2.40
2017-07-22T08:22:25.616Z,1.93
2017-07-22T08:24:53.086Z,3.30
2017-07-22T08:27:21.340Z,2.33
2017-07-22T08:29:48.816Z,2.00
2017-07-22T08:32:17.048Z,2.07
2017-07-22T08:34:44.531Z,2.23
2017-07-22T08:37:11.999Z,2.60
2017-07-22T08:39:40.251Z,2.30
2017-07-22T08:42:07.725Z,2.40
2017-07-22T08:44:35.200Z,2.67
2017-07-22T08:47:03.457Z,2.63
2017-07-22T08:49:30.923Z,2.03
2017-07-22T08:51:58.414Z,2.20
2017-07-22T08:54:25.895Z,3.97
2017-07-22T08:56:53.396Z,2.70
2017-07-22T08:59:20.873Z,3.97
2017-07-22T09:01:49.116Z,2.47
2017-07-22T09:04:16.596Z,4.03
2017-07-22T09:06:44.832Z,2.17
2017-07-22T09:09:12.316Z,3.07
2017-07-22T09:11:39.791Z,3.67
2017-07-22T09:14:08.036Z,3.37
2017-07-22T09:16:35.524Z,3.07
2017-07-22T09:19:03.768Z,4.10
2017-07-22T09:21:31.240Z,3.23
2017-07-22T09:23:58.733Z,3.87
2017-07-22T09:26:26.224Z,3.33
2017-07-22T09:28:53.773Z,2.27
2017-07-22T09:31:21.236Z,3.20
2017-07-22T09:33:48.741Z,3.40
2017-07-22T09:36:16.228Z,2.70
2017-07-22T09:38:43.680Z,3.60
2017-07-22T09:41:11.173Z,2.50
2017-07-22T09:43:38.649Z,4.43
2017-07-22T09:46:06.136Z,2.80
2017-07-22T09:48:34.370Z,2.40
2017-07-22T09:51:01.848Z,2.83
2017-07-22T09:53:29.320Z,2.80
2017-07-22T09:55:56.809Z,2.83
2017-07-22T09:58:24.276Z,3.87
2017-07-22T10:00:51.743Z,2.90
2017-07-22T10:03:19.232Z,3.40
2017-07-22T10:05:46.715Z,2.63
2017-07-22T10:08:14.192Z,3.33
2017-07-22T10:10:42.436Z,2.20
2017-07-22T10:13:09.927Z,2.00
2017-07-22T10:15:37.513Z,3.70
2017-07-22T10:18:04.996Z,2.20
2017-07-22T10:20:32.477Z,3.33
2017-07-22T10:22:59.985Z,4.80
2017-07-22T10:25:27.454Z,2.37
2017-07-22T10:27:55.006Z,2.20
2017-07-22T10:30:22.503Z,2.93
2017-07-22T10:32:50.004Z,2.30
2017-07-22T10:35:17.494Z,2.17
2017-07-22T10:37:44.952Z,3.50
2017-07-22T10:40:12.452Z,2.43
2017-07-22T10:42:40.693Z,2.40
2017-07-22T10:45:08.192Z,2.47
2017-07-22T10:47:36.431Z,1.93
2017-07-22T10:50:03.925Z,1.90
2017-07-22T10:52:32.148Z,1.97
2017-07-22T10:54:59.652Z,2.07
2017-07-22T10:57:27.128Z,2.43
2017-07-22T10:59:55.370Z,2.60
2017-07-22T11:02:22.856Z,3.47
2017-07-22T11:04:51.119Z,3.00
2017-07-22T11:07:18.592Z,4.13
2017-07-22T11:09:46.829Z,2.10
2017-07-22T11:12:14.387Z,3.23
2017-07-22T11:14:41.873Z,4.80
2017-07-22T11:17:09.392Z,5.57
2017-07-22T11:19:36.860Z,2.93
2017-07-22T11:22:04.352Z,2.10
2017-07-22T11:24:32.592Z,2.70
2017-07-22T11:27:00.070Z,2.27
2017-07-22T11:29:27.566Z,2.33
2017-07-22T11:31:55.041Z,2.10
2017-07-22T11:34:22.553Z,3.33
2017-07-22T11:36:50.027Z,3.10
2017-07-22T11:39:18.260Z,2.47
2017-07-22T11:41:45.744Z,2.47
2017-07-22T11:44:13.219Z,2.30
2017-07-22T11:46:40.720Z,2.70
2017-07-22T11:49:08.187Z,2.20
2017-07-22T11:51:35.693Z,2.90
2017-07-22T11:54:03.933Z,2.60
2017-07-22T11:56:31.409Z,3.83
2017-07-22T11:58:58.896Z,3.00
2017-07-22T12:01:26.364Z,2.33
2017-07-22T12:03:53.825Z,4.07
2017-07-22T12:06:21.311Z,2.10
2017-07-22T12:08:48.777Z,2.30
2017-07-22T12:11:16.272Z,3.03
2017-07-22T12:13:44.520Z,2.60
2017-07-22T12:16:12.000Z,2.70
2017-07-22T12:18:40.333Z,2.27
2017-07-22T12:21:07.813Z,2.43
2017-07-22T12:23:35.288Z,2.80
2017-07-22T12:26:02.783Z,2.87
2017-07-22T12:28:30.252Z,2.90
2017-07-22T12:30:57.719Z,3.13
2017-07-22T12:33:25.218Z,2.73
2017-07-22T12:35:52.710Z,2.83
2017-07-22T12:38:22.116Z,2.60
2017-07-22T12:40:50.541Z,2.50
2017-07-22T12:43:18.728Z,2.40
2017-07-22T12:45:46.991Z,2.77
2017-07-22T12:48:15.794Z,3.87
2017-07-22T12:50:44.056Z,2.47
2017-07-22T12:53:12.296Z,2.90
2017-07-22T12:55:39.781Z,2.70
2017-07-22T12:58:08.052Z,2.43
2017-07-22T13:00:35.546Z,2.93
2017-07-22T13:03:03.807Z,2.27
2017-07-22T13:05:32.053Z,2.30
2017-07-22T13:07:59.526Z,3.37
2017-07-22T13:10:27.010Z,2.73
2017-07-22T13:12:55.248Z,2.53
2017-07-22T13:15:22.748Z,2.50
2017-07-22T13:17:50.245Z,2.90
2017-07-22T13:20:17.722Z,3.53
2017-07-22T13:22:45.208Z,3.03
2017-07-22T13:25:13.474Z,3.10
2017-07-22T13:27:40.977Z,3.00
2017-07-22T13:30:08.472Z,2.90
2017-07-22T13:32:35.952Z,2.87
2017-07-22T13:35:04.219Z,3.30
2017-07-22T13:37:31.687Z,2.80
2017-07-22T13:39:59.197Z,3.30
2017-07-22T13:42:26.686Z,3.60
2017-07-22T13:44:54.162Z,3.47
2017-07-22T13:47:21.666Z,2.70
2017-07-22T13:49:49.120Z,2.90
2017-07-22T13:52:16.614Z,2.70
2017-07-22T13:54:44.097Z,2.67
2017-07-22T13:57:11.557Z,6.90
2017-07-22T13:59:39.821Z,3.43
2017-07-22T14:02:08.065Z,3.13
2017-07-22T14:04:35.732Z,4.23
2017-07-22T14:07:03.420Z,3.33
2017-07-22T14:09:30.908Z,4.10
2017-07-22T14:11:59.326Z,3.87
2017-07-22T14:14:26.808Z,5.03
2017-07-22T14:16:54.288Z,4.00
2017-07-22T14:19:22.521Z,3.47
2017-07-22T14:21:50.011Z,5.00
2017-07-22T14:24:17.481Z,3.93
2017-07-22T14:26:45.800Z,4.20
2017-07-22T14:29:13.367Z,4.03
2017-07-22T14:31:40.852Z,3.63
2017-07-22T14:34:08.332Z,4.43
2017-07-22T14:36:36.591Z,2.87
2017-07-22T14:39:04.067Z,3.57
2017-07-22T14:41:32.323Z,3.00
2017-07-22T14:43:59.805Z,2.73
2017-07-22T14:46:28.040Z,3.07
2017-07-22T14:48:55.534Z,3.50
2017-07-22T14:51:22.997Z,3.10
2017-07-22T14:53:51.246Z,3.17
2017-07-22T14:56:18.733Z,2.70
2017-07-22T14:58:46.980Z,3.10
2017-07-22T15:01:14.489Z,2.83
2017-07-22T15:03:41.962Z,2.97
2017-07-22T15:06:09.440Z,3.73
2017-07-22T15:08:36.921Z,6.00
2017-07-22T15:11:04.403Z,3.63
2017-07-22T15:13:32.644Z,3.60
2017-07-22T15:16:00.145Z,2.80
2017-07-22T15:18:28.369Z,3.30
2017-07-22T15:20:55.836Z,3.77
2017-07-22T15:23:23.328Z,3.40
2017-07-22T15:25:51.586Z,5.30
2017-07-22T15:28:19.076Z,3.10
2017-07-22T15:30:47.309Z,2.97
2017-07-22T15:33:14.803Z,3.43
2017-07-22T15:35:43.045Z,3.03
2017-07-22T15:38:10.536Z,2.90
2017-07-22T15:40:38.772Z,13.03
2017-07-22T15:43:06.245Z,3.30
2017-07-22T15:45:33.732Z,3.53
2017-07-22T15:48:01.220Z,3.37
2017-07-22T15:50:29.673Z,3.40
2017-07-22T15:52:57.166Z,2.47
2017-07-22T15:55:24.649Z,3.43
2017-07-22T15:57:52.148Z,3.33
2017-07-22T16:00:19.617Z,3.53
2017-07-22T16:02:47.086Z,3.40
2017-07-22T16:05:14.584Z,4.00
2017-07-22T16:07:42.041Z,3.43
2017-07-22T16:10:09.500Z,3.87
2017-07-22T16:12:36.992Z,3.00
2017-07-22T16:15:05.249Z,3.80
2017-07-22T16:17:33.528Z,3.17
2017-07-22T16:20:01.010Z,3.27
2017-07-22T16:22:28.521Z,3.60
2017-07-22T16:24:55.992Z,3.00
2017-07-22T16:27:23.491Z,3.10
2017-07-22T16:29:50.987Z,2.60
2017-07-22T16:32:18.463Z,2.50
2017-07-22T16:34:45.999Z,3.50
2017-07-22T16:37:13.604Z,2.97
2017-07-22T16:39:41.856Z,2.93
2017-07-22T16:42:10.194Z,7.50
2017-07-22T16:44:38.489Z,3.77
2017-07-22T16:47:05.986Z,3.10
2017-07-22T16:49:33.741Z,3.70
2017-07-22T16:52:01.240Z,3.90
2017-07-22T16:54:28.716Z,2.93
2017-07-22T16:56:56.230Z,2.87
2017-07-22T16:59:24.476Z,3.00
2017-07-22T17:01:51.969Z,3.03
2017-07-22T17:04:20.216Z,3.80
2017-07-22T17:06:47.692Z,2.67
2017-07-22T17:09:15.176Z,6.30
2017-07-22T17:11:42.658Z,3.00
2017-07-22T17:14:10.140Z,2.80
2017-07-22T17:16:37.640Z,3.27
2017-07-22T17:19:05.916Z,3.43
2017-07-22T17:21:34.174Z,3.23
2017-07-22T17:24:01.640Z,2.67
2017-07-22T17:26:29.896Z,2.43
2017-07-22T17:28:57.412Z,3.20
2017-07-22T17:31:24.887Z,4.40
2017-07-22T17:33:52.353Z,3.30
2017-07-22T17:36:19.842Z,3.80
2017-07-22T17:38:47.336Z,4.57
2017-07-22T17:41:14.835Z,3.43
2017-07-22T17:43:42.316Z,3.13
2017-07-22T17:46:09.778Z,3.40
2017-07-22T17:48:37.260Z,3.30
2017-07-22T17:51:04.735Z,2.70
2017-07-22T17:53:32.221Z,3.83
2017-07-22T17:55:59.693Z,3.27
2017-07-22T17:58:27.210Z,2.97
2017-07-22T18:00:54.827Z,3.17
2017-07-22T18:03:23.867Z,2.60
2017-07-22T18:05:51.440Z,2.60
2017-07-22T18:08:19.707Z,3.23
2017-07-22T18:10:48.520Z,4.57
2017-07-22T18:13:16.925Z,3.90
2017-07-22T18:15:45.321Z,3.33
2017-07-22T18:18:13.410Z,2.77
2017-07-22T18:20:41.381Z,3.47
2017-07-22T18:23:09.665Z,3.17
2017-07-22T18:25:37.979Z,3.30
2017-07-22T18:28:05.996Z,2.70
2017-07-22T18:30:34.552Z,2.90
2017-07-22T18:33:02.805Z,3.20
2017-07-22T18:35:30.295Z,2.97
2017-07-22T18:37:57.796Z,3.03
2017-07-22T18:40:25.588Z,2.90
2017-07-22T18:42:53.926Z,3.57
2017-07-22T18:45:21.397Z,3.40
2017-07-22T18:47:48.865Z,3.73
2017-07-22T18:50:16.380Z,4.00
2017-07-22T18:52:43.865Z,4.50
2017-07-22T18:55:11.340Z,4.80
2017-07-22T18:57:38.840Z,4.93
2017-07-22T19:00:06.338Z,4.37
2017-07-22T19:02:33.824Z,5.10
2017-07-22T19:05:01.333Z,5.53
2017-07-22T19:07:28.810Z,4.07
2017-07-22T19:09:56.323Z,3.73
2017-07-22T19:12:26.528Z,3.90
2017-07-22T19:14:55.970Z,5.23
2017-07-22T19:17:23.748Z,5.80
2017-07-22T19:19:51.366Z,5.50
2017-07-22T19:22:20.020Z,4.77
2017-07-22T19:24:47.693Z,3.80
2017-07-22T19:27:15.382Z,8.43
2017-07-22T19:29:43.034Z,5.20
2017-07-22T19:32:10.852Z,5.47
2017-07-22T19:34:38.548Z,6.80
2017-07-22T19:37:06.495Z,4.63
2017-07-22T19:39:34.252Z,8.80
2017-07-22T19:42:02.067Z,4.57
2017-07-22T19:44:31.337Z,4.60
2017-07-22T19:46:59.077Z,7.33
2017-07-22T19:49:28.127Z,4.33
2017-07-22T19:51:57.246Z,4.30
2017-07-22T19:54:24.721Z,6.60
2017-07-22T19:56:52.218Z,4.70
2017-07-22T19:59:19.688Z,4.50
2017-07-22T20:01:47.939Z,4.63
2017-07-22T20:04:15.432Z,4.77
2017-07-22T20:06:43.913Z,4.40
2017-07-22T20:09:12.932Z,6.20
2017-07-22T20:11:41.798Z,6.17
2017-07-22T20:14:11.459Z,4.60
2017-07-22T20:16:43.070Z,4.30
2017-07-22T20:19:11.792Z,4.53
2017-07-22T20:21:42.331Z,3.90
2017-07-22T20:24:11.326Z,4.60
2017-07-22T20:26:39.594Z,4.70
2017-07-22T20:29:10.119Z,5.77
2017-07-22T20:31:40.593Z,5.00
2017-07-22T20:34:08.994Z,4.20
2017-07-22T20:36:37.100Z,4.57
2017-07-22T20:39:05.342Z,4.17
2017-07-22T20:41:34.800Z,4.60
2017-07-22T20:44:02.285Z,4.70
2017-07-22T20:46:29.757Z,5.20
2017-07-22T20:48:58.093Z,5.67
2017-07-22T20:51:25.590Z,5.30
2017-07-22T20:53:53.872Z,9.53
2017-07-22T20:56:22.126Z,4.43
2017-07-22T20:58:49.620Z,4.53
2017-07-22T21:01:17.208Z,4.10
2017-07-22T21:03:44.700Z,4.63
2017-07-22T21:06:12.180Z,4.67
2017-07-22T21:08:41.948Z,3.73
2017-07-22T21:11:09.428Z,4.05
2017-07-22T21:13:37.786Z,3.90
2017-07-22T21:16:05.248Z,3.70
2017-07-22T21:18:32.730Z,4.17
2017-07-22T21:21:00.231Z,4.43
2017-07-22T21:23:27.737Z,5.80
2017-07-22T21:25:55.209Z,3.50
2017-07-22T21:28:22.693Z,6.53
2017-07-22T21:30:50.195Z,4.20
2017-07-22T21:33:18.503Z,5.40
2017-07-22T21:35:46.023Z,4.03
2017-07-22T21:38:13.500Z,4.63
2017-07-22T21:40:40.980Z,4.63
2017-07-22T21:43:09.232Z,3.20
2017-07-22T21:45:37.355Z,3.87
2017-07-22T21:48:04.825Z,4.97
2017-07-22T21:50:32.317Z,5.63
2017-07-22T21:53:00.607Z,4.43
2017-07-22T21:55:28.127Z,8.40
2017-07-22T21:57:55.643Z,4.60
2017-07-22T22:00:23.112Z,4.37
2017-07-22T22:02:51.392Z,4.23
2017-07-22T22:05:19.676Z,5.07
2017-07-22T22:07:47.162Z,3.63
2017-07-22T22:10:14.634Z,4.00
2017-07-22T22:12:42.125Z,6.47
2017-07-22T22:15:09.602Z,4.27
2017-07-22T22:17:37.932Z,7.03
2017-07-22T22:20:05.403Z,3.67
2017-07-22T22:22:32.880Z,4.00
2017-07-22T22:25:01.164Z,4.10
2017-07-22T22:27:29.410Z,4.57
2017-07-22T22:29:56.896Z,3.40
2017-07-22T22:32:25.133Z,3.40
2017-07-22T22:34:52.600Z,3.60
2017-07-22T22:37:20.192Z,4.50
2017-07-22T22:39:48.443Z,4.07
2017-07-22T22:42:15.967Z,4.10
2017-07-22T22:44:43.444Z,4.30
2017-07-22T22:47:10.984Z,5.03
2017-07-22T22:49:38.476Z,6.00
2017-07-22T22:52:06.212Z,3.90
2017-07-22T22:54:33.703Z,5.07
2017-07-22T22:57:01.196Z,4.07
2017-07-22T22:59:28.668Z,4.00
2017-07-22T23:01:56.176Z,4.77
2017-07-22T23:04:23.648Z,3.87
2017-07-22T23:06:51.974Z,4.33
2017-07-22T23:09:19.460Z,5.10
2017-07-22T23:11:46.936Z,4.70
2017-07-22T23:14:14.419Z,5.20
2017-07-22T23:16:41.893Z,5.70
2017-07-22T23:19:09.391Z,3.87
2017-07-22T23:21:36.860Z,5.23
2017-07-22T23:24:04.332Z,5.33
2017-07-22T23:26:31.832Z,4.87
2017-07-22T23:28:59.305Z,4.77
2017-07-22T23:31:26.800Z,6.57
2017-07-22T23:33:54.391Z,5.43
2017-07-22T23:36:21.885Z,6.13
2017-07-22T23:38:49.376Z,5.17
2017-07-22T23:41:16.853Z,4.93
2017-07-22T23:43:45.104Z,5.93
2017-07-22T23:46:12.596Z,4.63
2017-07-22T23:48:40.100Z,5.13
2017-07-22T23:51:07.577Z,5.10
2017-07-22T23:53:35.083Z,5.90
2017-07-22T23:56:02.582Z,4.73
2017-07-22T23:58:30.057Z,5.93
